CYMT

Details ICAO CYMT (YMT)
Name CHAPAIS
Region Canada
Timezone America/Montreal (UTC-5.0)
Plans Departing 1
Arriving 12
Stats Elevation 1,270 ft / 387 m (AMSL)
Location 49.771862° -74.527972°
Runways 1
Magnetic Variation 15.459° W
Sunrise 2017-12-18 12:52:45 UTC / 2017-12-18 07:52:45 Local
Sunset 2017-12-18 20:59:36 UTC / 2017-12-18 15:59:36 Local
Advertisement - Login to hide

Runways

ID Width Length Bearing (true) Bearing (mag) Surface Threshold Offset Overrun Length
05 150 ft / 46 m 6,491 ft / 1,979 m 28.21° 43.67° Asphalt 0 ft / 0 m 0 ft / 0 m
23 150 ft / 46 m 6,491 ft / 1,979 m 208.22° 223.68° Asphalt 0 ft / 0 m 0 ft / 0 m

Map

Weather


0- 5 10 15 20 25 30 35+ Temperature / ° C

Clouds and Precipitation
Forecast for 2017-12-18 12:00 UTC. Updated 2 hours ago

Ground ~20,000 ft ~40,000 ft Winds

METAR

CYMT 180900Z AUTO 18008KT 9SM BKN060 M22/M25 A2991 RMK SLP175

TAF

Not found
Warning: Do not use this data for real-world aviation or navigation. No guarantee of current accuracy is given.